Time;durP1;ratioP1;P1;durP2;ratioP2;P2;SDS_P1;SDS_P2;PMS_P1;PMS_P2;Temp;Humidity;BMP_temperature;BMP_pressure;BME280_temperature;BME280_humidity;BME280_pressure;Samples;Min_cycle;Max_cycle;Signal;HPM_P1;HPM_P2
2021/09/13 00:01:01;;;;;;;6.32;3.85;;;18.40;99.90;;;;;;4174011;28;20095;-75
2021/09/13 00:03:02;;;;;;;4.60;4.10;;;18.40;99.90;;;;;;4178137;28;20085;-75
2021/09/13 00:05:03;;;;;;;6.00;3.90;;;18.40;99.90;;;;;;4178235;28;20033;-75
2021/09/13 00:07:04;;;;;;;9.32;4.50;;;18.40;99.90;;;;;;4177047;28;20029;-75
2021/09/13 00:09:04;;;;;;;7.38;4.22;;;18.40;99.90;;;;;;4177028;28;20094;-75
2021/09/13 00:11:05;;;;;;;6.20;4.47;;;18.40;99.90;;;;;;4182792;28;20112;-75
2021/09/13 00:13:05;;;;;;;5.80;3.85;;;18.40;99.90;;;;;;4181766;28;20037;-75
2021/09/13 00:15:08;;;;;;;5.50;4.07;;;18.40;99.90;;;;;;4177086;28;20037;-75
2021/09/13 00:17:09;;;;;;;6.38;4.15;;;18.40;99.90;;;;;;4172538;28;20154;-75
2021/09/13 00:19:10;;;;;;;4.72;3.88;;;18.40;99.90;;;;;;4175217;28;20029;-75
2021/09/13 00:21:11;;;;;;;5.68;4.32;;;18.40;99.90;;;;;;4183881;28;20037;-75
2021/09/13 00:23:11;;;;;;;4.85;4.20;;;18.40;99.90;;;;;;4159839;28;20689;-75
2021/09/13 00:25:12;;;;;;;5.18;4.00;;;18.40;99.90;;;;;;4180377;28;20116;-75
2021/09/13 00:27:12;;;;;;;4.45;3.58;;;18.40;99.90;;;;;;4175922;28;20029;-75
2021/09/13 00:29:13;;;;;;;4.13;3.55;;;18.30;99.90;;;;;;4176938;28;20029;-75
2021/09/13 00:31:13;;;;;;;4.03;3.63;;;18.30;99.90;;;;;;4182020;28;20029;-75
2021/09/13 00:33:14;;;;;;;6.78;4.18;;;18.30;99.90;;;;;;4181343;28;20088;-75
2021/09/13 00:35:14;;;;;;;10.52;3.95;;;18.30;99.90;;;;;;4179046;28;20032;-75
2021/09/13 00:37:15;;;;;;;6.45;3.95;;;18.30;99.90;;;;;;4180886;28;20043;-75
2021/09/13 00:39:16;;;;;;;8.25;3.70;;;18.30;99.90;;;;;;4184906;28;20078;-75
2021/09/13 00:41:16;;;;;;;4.65;3.47;;;18.30;99.90;;;;;;4186926;28;20056;-75
2021/09/13 00:43:17;;;;;;;4.75;3.50;;;18.30;99.90;;;;;;4178287;28;20692;-75
2021/09/13 00:45:18;;;;;;;5.50;4.00;;;18.30;99.90;;;;;;4176729;28;20037;-75
2021/09/13 00:47:18;;;;;;;4.13;3.50;;;18.30;99.90;;;;;;4180449;28;20110;-75
2021/09/13 00:49:19;;;;;;;4.32;3.75;;;18.30;99.90;;;;;;4179148;28;20106;-75
2021/09/13 00:51:20;;;;;;;4.78;3.03;;;18.30;99.90;;;;;;4179782;28;20033;-74
2021/09/13 00:53:21;;;;;;;3.95;2.80;;;18.30;99.90;;;;;;4176454;28;20036;-75
2021/09/13 00:55:23;;;;;;;3.70;3.00;;;18.30;99.90;;;;;;4184613;28;20701;-76
2021/09/13 00:57:23;;;;;;;3.63;3.10;;;18.30;99.90;;;;;;4180846;28;20048;-75
2021/09/13 00:59:24;;;;;;;5.53;3.17;;;18.30;99.90;;;;;;4187081;28;20480;-75
2021/09/13 01:01:24;;;;;;;5.30;2.80;;;18.30;99.90;;;;;;4181124;28;20837;-75
2021/09/13 01:03:25;;;;;;;3.83;2.95;;;18.30;99.90;;;;;;4176388;28;20036;-75
2021/09/13 01:05:25;;;;;;;4.35;3.42;;;18.30;99.90;;;;;;4185257;28;20113;-75
2021/09/13 01:07:26;;;;;;;4.88;2.92;;;18.40;99.90;;;;;;4183679;28;20032;-75
2021/09/13 01:09:27;;;;;;;3.97;2.85;;;18.30;99.90;;;;;;4179446;28;20040;-75
2021/09/13 01:11:27;;;;;;;4.07;3.22;;;18.30;99.90;;;;;;4182304;28;20028;-75
2021/09/13 01:13:28;;;;;;;4.90;3.50;;;18.30;99.90;;;;;;4185155;28;20389;-75
2021/09/13 01:15:29;;;;;;;3.90;3.28;;;18.30;99.90;;;;;;4177532;28;20048;-75
2021/09/13 01:17:29;;;;;;;6.15;3.60;;;18.30;99.90;;;;;;4184999;28;20388;-75
2021/09/13 01:19:30;;;;;;;4.95;3.22;;;18.30;99.90;;;;;;4178750;28;20033;-75
2021/09/13 01:21:32;;;;;;;4.40;3.40;;;18.30;99.90;;;;;;4173425;28;20033;-75
2021/09/13 01:23:34;;;;;;;5.88;3.28;;;18.30;99.90;;;;;;4169607;28;20063;-75
2021/09/13 01:25:36;;;;;;;3.63;3.00;;;18.30;99.90;;;;;;4172845;28;20049;-75
2021/09/13 01:27:37;;;;;;;3.75;3.22;;;18.20;99.90;;;;;;4174824;28;20033;-75
2021/09/13 01:29:38;;;;;;;3.67;2.95;;;18.20;99.90;;;;;;4174194;28;20469;-75
2021/09/13 01:31:39;;;;;;;4.90;3.17;;;18.20;99.90;;;;;;4173303;28;20033;-75
2021/09/13 01:33:40;;;;;;;3.70;3.28;;;18.20;99.90;;;;;;4174346;28;20037;-75
2021/09/13 01:35:41;;;;;;;3.47;2.85;;;18.20;99.90;;;;;;4178959;28;20560;-75
2021/09/13 01:37:42;;;;;;;4.18;3.05;;;18.20;99.90;;;;;;4178078;28;20439;-75
2021/09/13 01:39:42;;;;;;;4.15;2.78;;;18.10;99.90;;;;;;4181420;28;20035;-75
2021/09/13 01:41:44;;;;;;;3.85;3.20;;;18.10;99.90;;;;;;4183274;28;20041;-76
2021/09/13 01:43:44;;;;;;;5.40;3.25;;;18.10;99.90;;;;;;4176473;28;20037;-75
2021/09/13 01:45:45;;;;;;;6.53;3.13;;;18.10;99.90;;;;;;4177488;28;20416;-75
2021/09/13 01:47:46;;;;;;;4.47;2.92;;;18.10;99.90;;;;;;4178861;28;20040;-75
2021/09/13 01:49:46;;;;;;;3.75;3.00;;;18.00;99.90;;;;;;4182418;28;20072;-75
2021/09/13 01:51:47;;;;;;;2.85;2.55;;;18.00;99.90;;;;;;4174789;28;20033;-75
2021/09/13 01:53:47;;;;;;;3.22;2.92;;;18.00;99.90;;;;;;4183793;28;20063;-75
2021/09/13 01:55:48;;;;;;;4.80;2.80;;;18.00;99.90;;;;;;4166002;28;20544;-75
2021/09/13 01:57:48;;;;;;;3.33;2.80;;;18.00;99.90;;;;;;4177791;28;20021;-75
2021/09/13 01:59:49;;;;;;;3.38;2.83;;;17.90;99.90;;;;;;4180755;28;20169;-76
2021/09/13 02:01:50;;;;;;;4.05;3.00;;;17.90;99.90;;;;;;4180838;28;20041;-75
2021/09/13 02:03:50;;;;;;;4.03;2.90;;;17.90;99.90;;;;;;4178910;28;20524;-75
2021/09/13 02:05:51;;;;;;;3.20;2.78;;;17.90;99.90;;;;;;4186405;28;20037;-75
2021/09/13 02:07:51;;;;;;;3.97;2.65;;;17.80;99.90;;;;;;4178886;28;20029;-75
2021/09/13 02:09:53;;;;;;;4.50;2.85;;;17.80;99.90;;;;;;4173026;28;20214;-75
2021/09/13 02:11:53;;;;;;;3.63;2.65;;;17.80;99.90;;;;;;4183980;28;20045;-75
2021/09/13 02:13:54;;;;;;;3.80;2.78;;;17.80;99.90;;;;;;4181664;28;20350;-75
2021/09/13 02:15:54;;;;;;;2.85;2.63;;;17.80;99.90;;;;;;4175050;28;20488;-75
2021/09/13 02:17:55;;;;;;;3.97;2.53;;;17.70;99.90;;;;;;4184589;28;20121;-75
2021/09/13 02:19:55;;;;;;;3.17;2.88;;;17.70;99.90;;;;;;4186786;28;20037;-75
2021/09/13 02:21:56;;;;;;;2.53;2.30;;;17.70;99.90;;;;;;4181764;28;20113;-75
2021/09/13 02:23:56;;;;;;;2.78;2.15;;;17.70;99.90;;;;;;4184929;28;20483;-75
2021/09/13 02:25:57;;;;;;;2.53;2.10;;;17.70;99.90;;;;;;4182736;28;20037;-75
2021/09/13 02:27:58;;;;;;;2.53;2.00;;;17.70;99.90;;;;;;4183733;28;20029;-75
2021/09/13 02:29:58;;;;;;;2.50;2.03;;;17.60;99.90;;;;;;4175313;28;20587;-75
2021/09/13 02:31:59;;;;;;;2.30;2.10;;;17.60;99.90;;;;;;4174816;28;20033;-75
2021/09/13 02:34:00;;;;;;;3.42;2.38;;;17.60;99.90;;;;;;4177106;28;20528;-75
2021/09/13 02:36:01;;;;;;;2.33;1.98;;;17.60;99.90;;;;;;4162661;28;20094;-75
2021/09/13 02:38:02;;;;;;;6.70;2.20;;;17.60;99.90;;;;;;4184463;28;20041;-75
2021/09/13 02:40:03;;;;;;;2.47;2.20;;;17.50;99.90;;;;;;4178683;28;20040;-76
2021/09/13 02:42:04;;;;;;;3.10;2.37;;;17.50;99.90;;;;;;4174552;28;20033;-75
2021/09/13 02:44:05;;;;;;;2.65;2.28;;;17.50;99.90;;;;;;4177333;28;20416;-75
2021/09/13 02:46:06;;;;;;;2.70;2.30;;;17.50;99.90;;;;;;4156249;28;20082;-76
2021/09/13 02:48:06;;;;;;;4.95;2.58;;;17.50;99.90;;;;;;4174381;28;20146;-75
2021/09/13 02:50:07;;;;;;;4.70;2.58;;;17.40;99.90;;;;;;4180589;28;20021;-75
2021/09/13 02:52:08;;;;;;;3.65;2.50;;;17.40;99.90;;;;;;4179999;28;20035;-75
2021/09/13 02:54:08;;;;;;;2.58;2.22;;;17.40;99.90;;;;;;4181303;28;20087;-75
2021/09/13 02:56:09;;;;;;;3.75;2.35;;;17.40;99.90;;;;;;4178796;28;20389;-75
2021/09/13 02:58:10;;;;;;;3.05;2.40;;;17.40;99.90;;;;;;4177135;28;20094;-75
2021/09/13 03:00:10;;;;;;;3.30;2.55;;;17.40;99.90;;;;;;4177740;28;20378;-75
2021/09/13 03:02:11;;;;;;;2.50;2.30;;;17.40;99.90;;;;;;4177369;28;20112;-75
2021/09/13 03:04:12;;;;;;;2.55;2.35;;;17.30;99.90;;;;;;4177562;28;20093;-75
2021/09/13 03:06:13;;;;;;;3.97;2.63;;;17.30;99.90;;;;;;4177239;28;20222;-75
2021/09/13 03:08:14;;;;;;;3.38;2.53;;;17.30;99.90;;;;;;4180663;28;20580;-75
2021/09/13 03:10:14;;;;;;;3.30;2.28;;;17.30;99.90;;;;;;4177329;28;20085;-75
2021/09/13 03:12:15;;;;;;;2.63;2.42;;;17.30;99.90;;;;;;4181112;28;20060;-76
2021/09/13 03:14:15;;;;;;;2.97;2.33;;;17.30;99.90;;;;;;4176812;28;20078;-75
2021/09/13 03:16:16;;;;;;;3.75;2.75;;;17.20;99.90;;;;;;4181038;28;20115;-75
2021/09/13 03:18:17;;;;;;;3.35;2.55;;;17.30;99.90;;;;;;4181728;28;20048;-75
2021/09/13 03:20:17;;;;;;;3.17;2.88;;;17.20;99.90;;;;;;4176680;28;20033;-75
2021/09/13 03:22:18;;;;;;;5.93;2.63;;;17.30;99.90;;;;;;4178238;28;20033;-76
2021/09/13 03:24:18;;;;;;;3.50;2.92;;;17.20;99.90;;;;;;4188944;28;20103;-75
2021/09/13 03:26:19;;;;;;;4.07;2.65;;;17.20;99.90;;;;;;4184666;28;20719;-75
2021/09/13 03:28:20;;;;;;;3.33;2.50;;;17.30;99.90;;;;;;4179737;28;20028;-75
2021/09/13 03:30:20;;;;;;;4.55;2.55;;;17.30;99.90;;;;;;4175056;28;20477;-75
2021/09/13 03:32:21;;;;;;;3.13;2.60;;;17.20;99.90;;;;;;4179768;28;20024;-75
2021/09/13 03:34:21;;;;;;;3.08;2.70;;;17.20;99.90;;;;;;4179180;28;20037;-75
2021/09/13 03:36:22;;;;;;;3.50;2.58;;;17.20;99.90;;;;;;4176421;28;20033;-75
2021/09/13 03:38:22;;;;;;;2.80;2.53;;;17.20;99.90;;;;;;4174407;28;20025;-75
2021/09/13 03:40:23;;;;;;;2.92;2.22;;;17.20;99.90;;;;;;4183262;28;20049;-75
2021/09/13 03:42:24;;;;;;;3.38;2.58;;;17.10;99.90;;;;;;4178847;28;20040;-75
2021/09/13 03:44:25;;;;;;;4.93;2.97;;;17.10;99.90;;;;;;4178360;28;20102;-75
2021/09/13 03:46:25;;;;;;;3.33;2.90;;;17.10;99.90;;;;;;4183113;28;20045;-76
2021/09/13 03:48:26;;;;;;;4.70;2.90;;;17.10;99.90;;;;;;4180838;28;20032;-75
2021/09/13 03:50:26;;;;;;;4.90;2.75;;;17.10;99.90;;;;;;4178429;28;20025;-75
2021/09/13 03:52:27;;;;;;;4.32;3.08;;;17.00;99.90;;;;;;4175080;28;20576;-75
2021/09/13 03:54:27;;;;;;;4.82;2.60;;;17.00;99.90;;;;;;4175405;28;20028;-75
2021/09/13 03:56:28;;;;;;;3.75;2.35;;;17.00;99.90;;;;;;4183124;28;20385;-75
2021/09/13 03:58:28;;;;;;;2.83;1.98;;;17.00;99.90;;;;;;4179684;28;20053;-75
2021/09/13 04:00:29;;;;;;;2.55;2.20;;;17.00;99.90;;;;;;4176419;28;20029;-75
2021/09/13 04:02:30;;;;;;;2.83;2.22;;;17.00;99.90;;;;;;4177661;28;20032;-75
2021/09/13 04:04:32;;;;;;;4.55;2.38;;;17.00;99.90;;;;;;4181940;28;20041;-75
2021/09/13 04:12:47;;;;;;;2.55;2.35;;;16.90;99.90;;;;;;4183447;28;20044;-75
2021/09/13 04:14:48;;;;;;;3.60;2.15;;;16.90;99.90;;;;;;4179411;28;20117;-75
2021/09/13 04:16:49;;;;;;;2.40;2.17;;;16.80;99.90;;;;;;4182649;28;20041;-75
2021/09/13 04:18:50;;;;;;;2.92;2.13;;;16.80;99.90;;;;;;4180515;28;20044;-75
2021/09/13 04:20:50;;;;;;;3.55;2.20;;;16.80;99.90;;;;;;4185299;28;20546;-75
2021/09/13 04:22:51;;;;;;;4.05;1.80;;;16.80;99.90;;;;;;4183588;28;20025;-75
2021/09/13 04:24:51;;;;;;;3.80;2.10;;;16.80;99.90;;;;;;4181990;28;20389;-75
2021/09/13 04:26:52;;;;;;;4.15;2.40;;;16.80;99.90;;;;;;4181588;28;20475;-75
2021/09/13 04:28:53;;;;;;;2.17;1.98;;;16.80;99.90;;;;;;4176263;28;20037;-75
2021/09/13 04:30:53;;;;;;;3.00;2.38;;;16.80;99.90;;;;;;4174751;28;20120;-75
2021/09/13 04:32:54;;;;;;;2.55;2.13;;;16.80;99.90;;;;;;4177166;28;20045;-76
2021/09/13 04:34:54;;;;;;;1.90;1.77;;;16.70;99.90;;;;;;4188044;28;20237;-75
2021/09/13 04:36:55;;;;;;;2.20;2.00;;;16.70;99.90;;;;;;4182144;28;20769;-75
2021/09/13 04:38:56;;;;;;;1.90;1.65;;;16.70;99.90;;;;;;4186296;28;20025;-75
2021/09/13 04:40:56;;;;;;;2.72;1.90;;;16.60;99.90;;;;;;4179297;28;20041;-75
2021/09/13 04:42:57;;;;;;;2.38;1.92;;;16.50;99.90;;;;;;4180941;28;20092;-75
2021/09/13 04:44:57;;;;;;;3.30;2.10;;;16.50;99.90;;;;;;4174501;28;20469;-74
2021/09/13 04:46:58;;;;;;;1.95;1.60;;;16.50;99.90;;;;;;4177852;28;20041;-75
2021/09/13 04:48:58;;;;;;;3.20;1.77;;;16.50;99.90;;;;;;4185573;28;20063;-75
2021/09/13 04:51:00;;;;;;;2.03;1.83;;;16.50;99.90;;;;;;4175011;28;20036;-76
2021/09/13 04:53:00;;;;;;;2.20;1.98;;;16.40;99.90;;;;;;4186505;28;20049;-76
2021/09/13 04:55:02;;;;;;;1.60;1.50;;;16.50;99.90;;;;;;4178866;28;20036;-76
2021/09/13 04:57:05;;;;;;;3.42;2.00;;;16.40;99.90;;;;;;4170502;28;20041;-77
2021/09/13 04:59:05;;;;;;;;;;;16.50;99.90;;;;;;4169134;28;20036;-76
2021/09/13 05:01:08;;;;;;;1.60;1.50;;;16.40;99.90;;;;;;4170127;28;19920;-77
2021/09/13 05:03:09;;;;;;;3.63;1.92;;;16.40;99.90;;;;;;4175923;28;20028;-77
2021/09/13 05:05:09;;;;;;;1.45;1.33;;;16.40;99.90;;;;;;4166296;28;20044;-77
2021/09/13 05:07:10;;;;;;;1.70;1.60;;;16.40;99.90;;;;;;4168003;28;20053;-77
2021/09/13 05:09:11;;;;;;;2.28;1.90;;;16.40;99.90;;;;;;4169656;28;20037;-77
2021/09/13 05:11:11;;;;;;;1.77;1.67;;;16.50;99.90;;;;;;4151622;28;20057;-77
2021/09/13 05:13:12;;;;;;;2.17;1.80;;;16.50;99.90;;;;;;4168875;28;20040;-77
2021/09/13 05:15:17;;;;;;;4.13;1.80;;;16.40;99.90;;;;;;4169109;28;20103;-77
2021/09/13 05:17:18;;;;;;;2.10;1.73;;;16.40;99.90;;;;;;4169371;28;20029;-77
2021/09/13 05:19:18;;;;;;;1.48;1.38;;;16.40;99.90;;;;;;4170869;28;20123;-77
2021/09/13 05:21:19;;;;;;;3.53;1.85;;;16.40;99.90;;;;;;4171566;28;20025;-77
2021/09/13 05:23:20;;;;;;;2.55;2.15;;;16.40;99.90;;;;;;4161880;28;20037;-77
2021/09/13 05:25:21;;;;;;;2.08;1.83;;;16.40;99.90;;;;;;4154240;28;20026;-77
2021/09/13 05:27:22;;;;;;;2.55;1.85;;;16.30;99.90;;;;;;4151102;28;20128;-77
2021/09/13 05:29:22;;;;;;;2.45;1.80;;;16.30;99.90;;;;;;4170516;28;20049;-77
2021/09/13 05:31:23;;;;;;;1.80;1.65;;;16.30;99.90;;;;;;4171070;28;20067;-77
2021/09/13 05:33:24;;;;;;;3.20;2.08;;;16.30;99.90;;;;;;4172586;28;20029;-76
2021/09/13 05:35:25;;;;;;;4.22;2.45;;;16.30;99.90;;;;;;4173701;28;20049;-76
2021/09/13 05:37:25;;;;;;;5.10;2.40;;;16.20;99.90;;;;;;4169544;28;20043;-77
2021/09/13 05:39:26;;;;;;;3.92;2.10;;;16.20;99.90;;;;;;4172270;28;20693;-77
2021/09/13 05:41:27;;;;;;;2.47;2.20;;;16.20;99.90;;;;;;4171440;28;20083;-77
2021/09/13 05:43:27;;;;;;;2.70;2.15;;;16.20;99.90;;;;;;4171599;28;20129;-76
2021/09/13 05:45:28;;;;;;;3.20;2.40;;;16.20;99.90;;;;;;4173106;28;20345;-77
2021/09/13 05:47:29;;;;;;;3.95;2.47;;;16.20;99.90;;;;;;4166789;28;20097;-77
2021/09/13 05:49:30;;;;;;;3.28;2.50;;;16.30;99.90;;;;;;4167795;28;20056;-77
2021/09/13 05:51:30;;;;;;;4.13;2.38;;;16.30;99.90;;;;;;4169473;28;20034;-77
2021/09/13 05:53:31;;;;;;;4.57;2.70;;;16.30;99.90;;;;;;4165116;28;21571;-77
2021/09/13 05:55:32;;;;;;;3.10;2.80;;;16.30;99.90;;;;;;4145764;28;20071;-76
2021/09/13 05:57:33;;;;;;;4.45;2.75;;;16.20;99.90;;;;;;4167872;28;20102;-77
2021/09/13 05:59:33;;;;;;;3.25;2.95;;;16.20;99.90;;;;;;4147618;28;20529;-77
2021/09/13 06:01:34;;;;;;;3.92;2.83;;;16.20;99.90;;;;;;4146825;28;20034;-76
2021/09/13 06:03:34;;;;;;;3.50;2.67;;;16.20;99.90;;;;;;4167723;28;20518;-76
2021/09/13 06:05:36;;;;;;;3.90;2.83;;;16.20;99.90;;;;;;4161791;28;20037;-76
2021/09/13 06:07:38;;;;;;;5.32;3.22;;;16.20;99.90;;;;;;4167494;28;20512;-76
2021/09/13 06:09:38;;;;;;;3.58;3.22;;;16.20;99.90;;;;;;4166259;28;20037;-76
2021/09/13 06:11:39;;;;;;;3.80;3.05;;;16.30;99.90;;;;;;4166874;28;20115;-76
2021/09/13 06:13:40;;;;;;;6.40;3.50;;;16.30;99.90;;;;;;4165073;28;20071;-76
2021/09/13 06:15:41;;;;;;;5.80;3.22;;;16.30;99.90;;;;;;4165321;28;20044;-76
2021/09/13 06:17:41;;;;;;;3.88;3.40;;;16.30;99.90;;;;;;4167860;28;20056;-76
2021/09/13 06:19:42;;;;;;;4.72;3.50;;;16.40;99.90;;;;;;4166934;28;20061;-76
2021/09/13 06:21:43;;;;;;;6.68;3.22;;;16.40;99.90;;;;;;4150203;28;20079;-77
2021/09/13 06:23:44;;;;;;;5.93;3.47;;;16.40;99.90;;;;;;4164225;28;20040;-77
2021/09/13 06:25:45;;;;;;;5.97;3.60;;;16.40;99.90;;;;;;4166818;28;20067;-77
2021/09/13 06:27:46;;;;;;;5.22;3.85;;;16.40;99.90;;;;;;4157028;28;20040;-77
2021/09/13 06:29:46;;;;;;;8.57;4.40;;;16.40;99.90;;;;;;4153502;28;20077;-77
2021/09/13 06:31:48;;;;;;;4.65;3.97;;;16.40;99.90;;;;;;4149096;28;20064;-77
2021/09/13 06:33:49;;;;;;;4.72;4.05;;;16.40;99.90;;;;;;4148504;28;20520;-77
2021/09/13 06:35:50;;;;;;;4.72;4.13;;;16.40;99.90;;;;;;4130934;28;20034;-77
2021/09/13 06:37:50;;;;;;;6.00;4.47;;;16.50;99.90;;;;;;4142803;28;20488;-77
2021/09/13 06:39:56;;;;;;;5.80;4.60;;;16.50;99.90;;;;;;4128327;28;20049;-77
2021/09/13 06:41:57;;;;;;;4.63;4.15;;;16.50;99.90;;;;;;4150572;28;20033;-77
2021/09/13 06:44:00;;;;;;;5.32;4.53;;;16.50;99.90;;;;;;4149945;28;20048;-77
2021/09/13 06:46:14;;;;;;;5.38;4.10;;;16.50;99.90;;;;;;4149414;28;20489;-77
2021/09/13 06:48:15;;;;;;;5.78;4.95;;;16.60;99.90;;;;;;4165650;28;20103;-77
2021/09/13 06:50:21;;;;;;;6.40;5.43;;;16.60;99.90;;;;;;4166600;28;20778;-77
2021/09/13 06:52:24;;;;;;;9.43;5.40;;;16.60;99.90;;;;;;4165749;28;20044;-77
2021/09/13 06:54:26;;;;;;;;;;;16.70;99.90;;;;;;4154612;28;20030;-77
2021/09/13 06:56:27;;;;;;;6.07;4.82;;;16.70;99.90;;;;;;4167687;28;19932;-77
2021/09/13 06:58:29;;;;;;;5.40;4.75;;;16.70;99.90;;;;;;4166216;28;20041;-77
2021/09/13 07:00:29;;;;;;;5.90;4.78;;;16.80;99.90;;;;;;4167002;28;20045;-77
2021/09/13 07:02:31;;;;;;;9.00;5.60;;;16.80;99.90;;;;;;4152704;28;20406;-77
2021/09/13 07:04:32;;;;;;;6.40;5.15;;;16.80;99.90;;;;;;4168808;28;20094;-77
2021/09/13 07:06:32;;;;;;;9.07;5.72;;;16.90;99.90;;;;;;4168810;28;20040;-77
2021/09/13 07:08:34;;;;;;;6.57;5.68;;;16.90;99.90;;;;;;4170583;28;20126;-77
2021/09/13 07:10:36;;;;;;;9.02;5.43;;;17.00;99.90;;;;;;4169056;28;20064;-77
2021/09/13 07:12:37;;;;;;;5.93;5.32;;;17.00;99.90;;;;;;4170793;28;20041;-77
2021/09/13 07:14:37;;;;;;;6.03;5.43;;;17.00;99.90;;;;;;4168211;28;21471;-77
2021/09/13 07:16:38;;;;;;;5.65;4.95;;;17.10;99.90;;;;;;4169248;28;20548;-78
2021/09/13 07:18:38;;;;;;;6.72;5.00;;;17.10;99.90;;;;;;4155210;28;20496;-77
2021/09/13 07:20:40;;;;;;;7.05;4.97;;;17.10;99.90;;;;;;4168073;28;20040;-77
2021/09/13 07:22:42;;;;;;;7.40;4.95;;;17.20;99.90;;;;;;4165609;28;20037;-77
2021/09/13 07:24:43;;;;;;;5.57;4.75;;;17.20;99.90;;;;;;4151586;28;20041;-77
2021/09/13 07:26:44;;;;;;;7.25;4.80;;;17.20;99.90;;;;;;4168048;28;20033;-77
2021/09/13 07:28:44;;;;;;;7.93;4.90;;;17.20;99.90;;;;;;4151373;28;20116;-78
2021/09/13 07:30:45;;;;;;;5.72;5.13;;;17.30;99.90;;;;;;4169221;28;20587;-78
2021/09/13 07:32:47;;;;;;;6.53;4.80;;;17.30;99.90;;;;;;4168918;28;20029;-78
2021/09/13 07:34:48;;;;;;;5.68;4.03;;;17.30;99.90;;;;;;4171096;28;20166;-78
2021/09/13 07:36:48;;;;;;;6.55;4.68;;;17.30;99.90;;;;;;4171547;28;20451;-78
2021/09/13 07:38:49;;;;;;;5.55;3.95;;;17.30;99.90;;;;;;4170069;28;20559;-78
2021/09/13 07:40:49;;;;;;;6.03;3.92;;;17.30;99.90;;;;;;4174184;28;20126;-77
2021/09/13 07:42:50;;;;;;;5.63;3.70;;;17.30;99.90;;;;;;4173399;28;20139;-78
2021/09/13 07:44:51;;;;;;;5.72;3.60;;;17.30;99.90;;;;;;4171797;28;20555;-78
2021/09/13 07:46:52;;;;;;;5.40;3.85;;;17.30;99.90;;;;;;4173435;28;20576;-78
2021/09/13 07:48:53;;;;;;;3.75;2.80;;;17.40;99.90;;;;;;4174349;28;20048;-78
2021/09/13 07:50:53;;;;;;;2.85;2.47;;;17.40;99.90;;;;;;4175138;28;20029;-79
2021/09/13 07:52:54;;;;;;;9.27;3.47;;;17.40;99.90;;;;;;4173948;28;20063;-78
2021/09/13 07:54:55;;;;;;;4.95;2.60;;;17.40;99.90;;;;;;4172310;28;20076;-78
2021/09/13 07:56:55;;;;;;;5.65;2.72;;;17.40;99.90;;;;;;4152434;28;20054;-78
2021/09/13 08:00:06;;;;;;;4.25;2.00;;;17.40;99.90;;;;;;4091120;28;20103;-79
2021/09/13 08:02:22;;;;;;;3.47;2.00;;;17.50;99.90;;;;;;4030875;28;20113;-78
2021/09/13 08:04:22;;;;;;;3.95;2.25;;;17.50;99.90;;;;;;4165280;28;20143;-78
2021/09/13 08:06:23;;;;;;;3.33;2.15;;;17.60;99.90;;;;;;4172447;28;20068;-79
2021/09/13 08:08:24;;;;;;;3.40;2.20;;;17.60;99.90;;;;;;4172177;28;20041;-78
2021/09/13 08:10:31;;;;;;;4.70;2.50;;;17.70;99.90;;;;;;4171138;28;20171;-78
2021/09/13 08:12:33;;;;;;;5.47;2.33;;;17.80;99.90;;;;;;4173885;28;20045;-78
2021/09/13 08:14:34;;;;;;;3.88;2.20;;;17.90;99.90;;;;;;4172034;28;20037;-79
2021/09/13 08:16:35;;;;;;;3.05;1.83;;;18.00;99.90;;;;;;4173885;28;20037;-78
2021/09/13 08:18:38;;;;;;;4.57;2.33;;;18.10;99.90;;;;;;4170400;28;20090;-78
2021/09/13 08:20:40;;;;;;;4.15;2.13;;;18.20;99.90;;;;;;4170956;28;20040;-78
2021/09/13 08:22:40;;;;;;;7.80;2.92;;;18.30;99.90;;;;;;4174645;28;20073;-78
2021/09/13 08:24:44;;;;;;;5.70;2.60;;;18.30;99.90;;;;;;4174155;28;20033;-79
2021/09/13 08:26:44;;;;;;;5.85;2.42;;;18.40;99.90;;;;;;4170603;28;20091;-78
2021/09/13 08:28:46;;;;;;;5.72;2.45;;;18.40;99.90;;;;;;4153919;28;20514;-79
2021/09/13 08:30:48;;;;;;;4.97;2.15;;;18.50;99.90;;;;;;4162353;28;20968;-78
2021/09/13 08:32:49;;;;;;;4.40;2.47;;;18.60;99.90;;;;;;4139166;28;20096;-79
2021/09/13 08:34:53;;;;;;;7.93;2.50;;;18.60;99.90;;;;;;4157780;28;20041;-78
2021/09/13 08:36:54;;;;;;;10.50;2.97;;;18.70;99.90;;;;;;4154824;28;20812;-78
2021/09/13 08:38:55;;;;;;;3.85;2.38;;;18.80;99.90;;;;;;4154900;28;20037;-78
2021/09/13 08:40:56;;;;;;;3.75;1.90;;;18.70;99.90;;;;;;4138477;28;20530;-79
2021/09/13 08:42:58;;;;;;;5.68;2.00;;;18.80;99.90;;;;;;4156410;28;20038;-79
2021/09/13 08:45:00;;;;;;;3.72;1.65;;;18.80;99.90;;;;;;4155703;28;20045;-78
2021/09/13 08:47:16;;;;;;;2.07;1.43;;;18.90;99.90;;;;;;4156650;28;20120;-78
2021/09/13 08:49:33;;;;;;;3.70;1.60;;;19.10;99.90;;;;;;4163293;28;20116;-78
2021/09/13 08:51:33;;;;;;;4.53;1.70;;;19.20;99.90;;;;;;4154850;28;20048;-78
2021/09/13 08:53:39;;;;;;;1.95;1.50;;;19.30;99.90;;;;;;4154496;28;20045;-78
2021/09/13 08:55:40;;;;;;;2.47;1.73;;;19.40;99.90;;;;;;4172383;28;20483;-78
2021/09/13 08:57:42;;;;;;;2.15;1.40;;;19.60;99.90;;;;;;4172347;28;20045;-78
2021/09/13 08:59:45;;;;;;;6.20;2.00;;;19.70;99.90;;;;;;4172237;28;20033;-79
2021/09/13 09:01:46;;;;;;;3.78;1.52;;;19.70;99.90;;;;;;4171147;28;20040;-78
2021/09/13 09:03:49;;;;;;;4.07;1.77;;;19.80;99.90;;;;;;4171744;28;20040;-74
2021/09/13 09:05:53;;;;;;;;;;;19.80;99.90;;;;;;4170485;28;20045;-74
2021/09/13 09:07:55;;;;;;;2.92;1.30;;;19.80;99.90;;;;;;4171148;28;19970;-74
2021/09/13 09:10:10;;;;;;;2.08;1.10;;;20.00;99.90;;;;;;4170148;28;20044;-74
2021/09/13 09:12:13;;;;;;;1.23;0.77;;;20.00;99.90;;;;;;4168995;28;20029;-74
2021/09/13 09:14:33;;;;;;;1.67;0.98;;;20.10;99.90;;;;;;4169839;28;20495;-74
2021/09/13 09:16:34;;;;;;;1.58;0.68;;;20.10;99.90;;;;;;4170193;28;22171;-73
2021/09/13 09:18:48;;;;;;;1.27;0.77;;;20.20;99.90;;;;;;4168993;28;20045;-74
2021/09/13 09:20:48;;;;;;;3.45;0.90;;;20.30;99.90;;;;;;4167244;28;20056;-74
2021/09/13 09:23:00;;;;;;;2.78;0.75;;;20.40;99.90;;;;;;4168632;28;20048;-74
2021/09/13 09:25:05;;;;;;;3.92;1.13;;;20.50;99.90;;;;;;4170660;28;20119;-74
2021/09/13 09:27:05;;;;;;;2.35;1.00;;;20.60;99.90;;;;;;4170350;28;20691;-74
2021/09/13 09:29:06;;;;;;;2.13;0.75;;;20.60;99.90;;;;;;4171138;28;20060;-74
2021/09/13 09:31:07;;;;;;;1.15;0.75;;;20.50;99.90;;;;;;4167903;28;20034;-74
2021/09/13 09:33:16;;;;;;;3.90;1.13;;;20.60;99.90;;;;;;4169287;28;20037;-74
2021/09/13 09:35:17;;;;;;;2.38;0.93;;;20.70;99.90;;;;;;4168560;28;20140;-73
2021/09/13 09:37:23;;;;;;;1.80;0.70;;;20.80;99.90;;;;;;4170240;28;20512;-74
2021/09/13 09:39:35;;;;;;;1.05;0.50;;;20.80;99.90;;;;;;4169088;28;20107;-74
2021/09/13 09:41:41;;;;;;;1.27;0.50;;;20.90;99.90;;;;;;4168082;28;20033;-74
2021/09/13 09:44:01;;;;;;;1.73;0.75;;;21.00;99.90;;;;;;4166998;28;20033;-74
2021/09/13 09:46:11;;;;;;;2.15;0.80;;;21.10;99.90;;;;;;4170230;28;20036;-74
2021/09/13 09:48:12;;;;;;;1.42;0.82;;;21.20;99.90;;;;;;4162595;28;20064;-74
2021/09/13 09:50:29;;;;;;;1.45;1.15;;;21.20;99.90;;;;;;4150809;28;20492;-74
2021/09/13 09:52:37;;;;;;;1.90;1.00;;;21.30;99.90;;;;;;4157177;28;20795;-74
2021/09/13 09:54:38;;;;;;;1.25;1.00;;;21.30;99.90;;;;;;4171267;28;20048;-74
2021/09/13 09:56:39;;;;;;;2.25;1.40;;;21.30;99.90;;;;;;4170641;28;20033;-74
2021/09/13 09:59:03;;;;;;;4.00;1.52;;;21.40;99.90;;;;;;4165720;28;20037;-74
2021/09/13 10:01:03;;;;;;;4.35;1.65;;;21.40;99.90;;;;;;4161380;28;20072;-74
2021/09/13 10:03:06;;;;;;;2.40;1.30;;;21.50;99.90;;;;;;4144613;28;20516;-74
2021/09/13 10:05:07;;;;;;;2.38;1.27;;;21.50;99.90;;;;;;4154304;28;20079;-74
2021/09/13 10:07:14;;;;;;;2.60;1.45;;;21.60;99.90;;;;;;4151774;28;20533;-74
2021/09/13 10:09:15;;;;;;;3.03;1.50;;;21.70;99.90;;;;;;4168583;28;20041;-74
2021/09/13 10:11:16;;;;;;;2.30;1.35;;;21.70;99.90;;;;;;4169749;28;20065;-74
2021/09/13 10:13:21;;;;;;;4.93;1.90;;;21.80;99.90;;;;;;4168215;28;20079;-74
2021/09/13 10:15:22;;;;;;;5.03;1.95;;;21.80;99.90;;;;;;4166716;28;20531;-74
2021/09/13 10:17:23;;;;;;;3.15;1.52;;;21.80;99.90;;;;;;4169747;28;20033;-74
2021/09/13 10:19:25;;;;;;;2.10;1.58;;;21.80;99.90;;;;;;4168718;28;20040;-74
2021/09/13 10:21:26;;;;;;;4.97;1.77;;;21.80;99.90;;;;;;4167878;28;20076;-74
2021/09/13 10:23:26;;;;;;;2.95;1.60;;;21.90;99.90;;;;;;4170008;28;20033;-74
2021/09/13 10:25:31;;;;;;;3.80;1.48;;;21.90;99.90;;;;;;4168348;28;20075;-74
2021/09/13 10:27:40;;;;;;;3.42;1.65;;;21.90;99.90;;;;;;4168963;28;20075;-74
2021/09/13 10:29:41;;;;;;;3.42;1.83;;;22.00;99.90;;;;;;4167903;28;20032;-74
2021/09/13 10:31:42;;;;;;;2.15;1.65;;;22.00;99.90;;;;;;4168284;28;20358;-74
2021/09/13 10:33:59;;;;;;;5.57;1.35;;;22.00;99.90;;;;;;4169525;28;20032;-74
2021/09/13 10:36:05;;;;;;;1.85;1.48;;;22.00;99.90;;;;;;4167386;28;20090;-74
2021/09/13 10:38:06;;;;;;;3.47;1.40;;;22.00;99.90;;;;;;4150876;28;20072;-74
2021/09/13 10:40:25;;;;;;;3.40;1.48;;;22.10;99.90;;;;;;4167259;28;20587;-74
2021/09/13 10:42:40;;;;;;;1.45;0.80;;;22.10;99.90;;;;;;4150568;28;20037;-74